sensor_id;sensor_type;location;lat;lon;timestamp;temperature;humidity
22765;DHT22;11549;50.852;3.816;2023-05-07T00:01:26;16.30;99.90
22765;DHT22;11549;50.852;3.816;2023-05-07T00:03:54;16.30;99.90
22765;DHT22;11549;50.852;3.816;2023-05-07T00:06:23;16.30;99.90
22765;DHT22;11549;50.852;3.816;2023-05-07T00:08:53;16.40;99.90
22765;DHT22;11549;50.852;3.816;2023-05-07T00:11:21;16.40;99.90
22765;DHT22;11549;50.852;3.816;2023-05-07T00:13:50;16.30;99.90
22765;DHT22;11549;50.852;3.816;2023-05-07T00:16:19;16.40;99.90
22765;DHT22;11549;50.852;3.816;2023-05-07T00:18:47;16.40;99.90
22765;DHT22;11549;50.852;3.816;2023-05-07T00:21:16;16.30;99.90
22765;DHT22;11549;50.852;3.816;2023-05-07T00:23:44;16.30;99.90
22765;DHT22;11549;50.852;3.816;2023-05-07T00:26:12;16.40;99.90
22765;DHT22;11549;50.852;3.816;2023-05-07T00:28:41;16.40;99.90
22765;DHT22;11549;50.852;3.816;2023-05-07T00:31:10;16.50;99.90
22765;DHT22;11549;50.852;3.816;2023-05-07T00:33:39;16.40;99.90
22765;DHT22;11549;50.852;3.816;2023-05-07T00:36:07;16.40;99.90
22765;DHT22;11549;50.852;3.816;2023-05-07T00:38:35;16.40;99.90
22765;DHT22;11549;50.852;3.816;2023-05-07T00:41:04;16.40;99.90
22765;DHT22;11549;50.852;3.816;2023-05-07T00:43:32;16.30;99.90
22765;DHT22;11549;50.852;3.816;2023-05-07T00:46:01;16.30;99.90
22765;DHT22;11549;50.852;3.816;2023-05-07T00:48:31;16.20;99.90
22765;DHT22;11549;50.852;3.816;2023-05-07T00:51:00;16.10;99.90
22765;DHT22;11549;50.852;3.816;2023-05-07T00:53:28;16.10;99.90
22765;DHT22;11549;50.852;3.816;2023-05-07T00:55:57;16.00;99.90
22765;DHT22;11549;50.852;3.816;2023-05-07T00:58:25;15.90;99.90
22765;DHT22;11549;50.852;3.816;2023-05-07T01:00:54;16.00;99.90
22765;DHT22;11549;50.852;3.816;2023-05-07T01:03:22;16.00;99.90
22765;DHT22;11549;50.852;3.816;2023-05-07T01:05:53;16.00;99.90
22765;DHT22;11549;50.852;3.816;2023-05-07T01:08:22;16.00;99.90
22765;DHT22;11549;50.852;3.816;2023-05-07T01:10:53;16.00;99.90
22765;DHT22;11549;50.852;3.816;2023-05-07T01:13:22;16.00;99.90
22765;DHT22;11549;50.852;3.816;2023-05-07T01:15:52;16.00;99.90
22765;DHT22;11549;50.852;3.816;2023-05-07T01:18:21;16.00;99.90
22765;DHT22;11549;50.852;3.816;2023-05-07T01:20:49;16.00;99.90
22765;DHT22;11549;50.852;3.816;2023-05-07T01:23:19;16.00;99.90
22765;DHT22;11549;50.852;3.816;2023-05-07T01:25:51;16.00;99.90
22765;DHT22;11549;50.852;3.816;2023-05-07T01:28:20;15.80;99.90
22765;DHT22;11549;50.852;3.816;2023-05-07T01:30:54;15.80;99.90
22765;DHT22;11549;50.852;3.816;2023-05-07T01:33:24;15.80;99.90
22765;DHT22;11549;50.852;3.816;2023-05-07T01:35:55;16.00;99.90
22765;DHT22;11549;50.852;3.816;2023-05-07T01:38:27;15.80;99.90
22765;DHT22;11549;50.852;3.816;2023-05-07T01:40:56;15.80;99.90
22765;DHT22;11549;50.852;3.816;2023-05-07T01:43:25;15.70;99.90
22765;DHT22;11549;50.852;3.816;2023-05-07T01:45:54;15.80;99.90
22765;DHT22;11549;50.852;3.816;2023-05-07T01:48:24;15.90;99.90
22765;DHT22;11549;50.852;3.816;2023-05-07T01:50:53;15.80;99.90
22765;DHT22;11549;50.852;3.816;2023-05-07T01:53:21;15.90;99.90
22765;DHT22;11549;50.852;3.816;2023-05-07T01:55:51;15.90;99.90
22765;DHT22;11549;50.852;3.816;2023-05-07T01:58:19;15.80;99.90
22765;DHT22;11549;50.852;3.816;2023-05-07T02:00:48;15.70;99.90
22765;DHT22;11549;50.852;3.816;2023-05-07T02:03:16;15.70;99.90
22765;DHT22;11549;50.852;3.816;2023-05-07T02:05:44;15.70;99.90
22765;DHT22;11549;50.852;3.816;2023-05-07T02:08:12;15.80;99.90
22765;DHT22;11549;50.852;3.816;2023-05-07T02:10:41;15.90;99.90
22765;DHT22;11549;50.852;3.816;2023-05-07T02:13:10;15.90;99.90
22765;DHT22;11549;50.852;3.816;2023-05-07T02:15:39;15.70;99.90
22765;DHT22;11549;50.852;3.816;2023-05-07T02:18:08;15.60;99.90
22765;DHT22;11549;50.852;3.816;2023-05-07T02:20:36;15.70;99.90
22765;DHT22;11549;50.852;3.816;2023-05-07T02:23:05;15.80;99.90
22765;DHT22;11549;50.852;3.816;2023-05-07T02:25:33;15.80;99.90
22765;DHT22;11549;50.852;3.816;2023-05-07T02:28:02;15.70;99.90
22765;DHT22;11549;50.852;3.816;2023-05-07T02:30:31;15.70;99.90
22765;DHT22;11549;50.852;3.816;2023-05-07T02:33:00;15.60;99.90
22765;DHT22;11549;50.852;3.816;2023-05-07T02:35:28;15.60;99.90
22765;DHT22;11549;50.852;3.816;2023-05-07T02:37:57;15.60;99.90
22765;DHT22;11549;50.852;3.816;2023-05-07T02:40:25;15.70;99.90
22765;DHT22;11549;50.852;3.816;2023-05-07T02:42:54;15.60;99.90
22765;DHT22;11549;50.852;3.816;2023-05-07T02:45:22;15.60;99.90
22765;DHT22;11549;50.852;3.816;2023-05-07T02:47:52;15.60;99.90
22765;DHT22;11549;50.852;3.816;2023-05-07T02:50:20;15.60;99.90
22765;DHT22;11549;50.852;3.816;2023-05-07T02:52:49;15.50;99.90
22765;DHT22;11549;50.852;3.816;2023-05-07T02:55:18;15.50;99.90
22765;DHT22;11549;50.852;3.816;2023-05-07T02:57:46;15.50;99.90
22765;DHT22;11549;50.852;3.816;2023-05-07T03:00:16;15.50;99.90
22765;DHT22;11549;50.852;3.816;2023-05-07T03:02:45;15.50;99.90
22765;DHT22;11549;50.852;3.816;2023-05-07T03:05:15;15.50;99.90
22765;DHT22;11549;50.852;3.816;2023-05-07T03:07:43;15.50;99.90
22765;DHT22;11549;50.852;3.816;2023-05-07T03:10:13;15.40;99.90
22765;DHT22;11549;50.852;3.816;2023-05-07T03:12:41;15.50;99.90
22765;DHT22;11549;50.852;3.816;2023-05-07T03:15:10;15.60;99.90
22765;DHT22;11549;50.852;3.816;2023-05-07T03:17:39;15.70;99.90
22765;DHT22;11549;50.852;3.816;2023-05-07T03:20:08;15.70;99.90
22765;DHT22;11549;50.852;3.816;2023-05-07T03:22:39;15.50;99.90
22765;DHT22;11549;50.852;3.816;2023-05-07T03:25:08;15.60;99.90
22765;DHT22;11549;50.852;3.816;2023-05-07T03:27:37;15.70;99.90
22765;DHT22;11549;50.852;3.816;2023-05-07T03:30:07;15.70;99.90
22765;DHT22;11549;50.852;3.816;2023-05-07T03:32:36;15.60;99.90
22765;DHT22;11549;50.852;3.816;2023-05-07T03:35:04;15.70;99.90
22765;DHT22;11549;50.852;3.816;2023-05-07T03:37:33;15.80;99.90
22765;DHT22;11549;50.852;3.816;2023-05-07T03:40:04;15.80;99.90
22765;DHT22;11549;50.852;3.816;2023-05-07T03:42:32;15.70;99.90
22765;DHT22;11549;50.852;3.816;2023-05-07T03:45:01;15.70;99.90
22765;DHT22;11549;50.852;3.816;2023-05-07T03:47:29;15.70;99.90
22765;DHT22;11549;50.852;3.816;2023-05-07T03:49:57;15.80;99.90
22765;DHT22;11549;50.852;3.816;2023-05-07T03:52:26;15.70;99.90
22765;DHT22;11549;50.852;3.816;2023-05-07T03:54:54;15.70;99.90
22765;DHT22;11549;50.852;3.816;2023-05-07T03:57:24;15.80;99.90
22765;DHT22;11549;50.852;3.816;2023-05-07T03:59:52;15.80;99.90
22765;DHT22;11549;50.852;3.816;2023-05-07T04:02:20;15.80;99.90
22765;DHT22;11549;50.852;3.816;2023-05-07T04:04:49;15.70;99.90
22765;DHT22;11549;50.852;3.816;2023-05-07T04:07:17;15.60;99.90
22765;DHT22;11549;50.852;3.816;2023-05-07T04:09:45;15.60;99.90
22765;DHT22;11549;50.852;3.816;2023-05-07T04:12:14;15.60;99.90
22765;DHT22;11549;50.852;3.816;2023-05-07T04:14:44;15.60;99.90
22765;DHT22;11549;50.852;3.816;2023-05-07T04:17:13;15.70;99.90
22765;DHT22;11549;50.852;3.816;2023-05-07T04:19:41;15.70;99.90
22765;DHT22;11549;50.852;3.816;2023-05-07T04:22:12;15.70;99.90
22765;DHT22;11549;50.852;3.816;2023-05-07T04:24:40;15.60;99.90
22765;DHT22;11549;50.852;3.816;2023-05-07T04:27:09;15.60;99.90
22765;DHT22;11549;50.852;3.816;2023-05-07T04:29:37;15.60;99.90
22765;DHT22;11549;50.852;3.816;2023-05-07T04:32:10;15.70;99.90
22765;DHT22;11549;50.852;3.816;2023-05-07T04:34:39;15.70;99.90
22765;DHT22;11549;50.852;3.816;2023-05-07T04:37:08;15.70;99.90
22765;DHT22;11549;50.852;3.816;2023-05-07T04:39:36;15.80;99.90
22765;DHT22;11549;50.852;3.816;2023-05-07T04:42:05;15.80;99.90
22765;DHT22;11549;50.852;3.816;2023-05-07T04:44:34;15.80;99.90
22765;DHT22;11549;50.852;3.816;2023-05-07T04:47:03;15.80;99.90
22765;DHT22;11549;50.852;3.816;2023-05-07T04:49:34;15.80;99.90
22765;DHT22;11549;50.852;3.816;2023-05-07T04:52:02;15.90;99.90
22765;DHT22;11549;50.852;3.816;2023-05-07T04:54:30;15.90;99.90
22765;DHT22;11549;50.852;3.816;2023-05-07T04:56:58;15.90;99.90
22765;DHT22;11549;50.852;3.816;2023-05-07T04:59:27;15.90;99.90
22765;DHT22;11549;50.852;3.816;2023-05-07T05:01:55;15.90;99.90
22765;DHT22;11549;50.852;3.816;2023-05-07T05:04:25;15.90;99.90
22765;DHT22;11549;50.852;3.816;2023-05-07T05:06:54;16.00;99.90
22765;DHT22;11549;50.852;3.816;2023-05-07T05:09:22;16.00;99.90
22765;DHT22;11549;50.852;3.816;2023-05-07T05:11:51;16.00;99.90
22765;DHT22;11549;50.852;3.816;2023-05-07T05:14:19;16.00;99.90
22765;DHT22;11549;50.852;3.816;2023-05-07T05:16:47;15.90;99.90
22765;DHT22;11549;50.852;3.816;2023-05-07T05:19:16;15.90;99.90
22765;DHT22;11549;50.852;3.816;2023-05-07T05:21:45;15.90;99.90
22765;DHT22;11549;50.852;3.816;2023-05-07T05:24:15;15.90;99.90
22765;DHT22;11549;50.852;3.816;2023-05-07T05:26:44;15.90;99.90
22765;DHT22;11549;50.852;3.816;2023-05-07T05:29:12;15.90;99.90
22765;DHT22;11549;50.852;3.816;2023-05-07T05:31:40;15.90;99.90
22765;DHT22;11549;50.852;3.816;2023-05-07T05:34:09;15.90;99.90
22765;DHT22;11549;50.852;3.816;2023-05-07T05:36:38;16.00;99.90
22765;DHT22;11549;50.852;3.816;2023-05-07T05:39:06;16.00;99.90
22765;DHT22;11549;50.852;3.816;2023-05-07T05:41:37;15.90;99.90
22765;DHT22;11549;50.852;3.816;2023-05-07T05:44:05;15.90;99.90
22765;DHT22;11549;50.852;3.816;2023-05-07T05:46:33;15.90;99.90
22765;DHT22;11549;50.852;3.816;2023-05-07T05:49:03;15.90;99.90
22765;DHT22;11549;50.852;3.816;2023-05-07T05:51:31;16.00;99.90
22765;DHT22;11549;50.852;3.816;2023-05-07T05:53:59;16.00;99.90
22765;DHT22;11549;50.852;3.816;2023-05-07T05:56:28;16.00;99.90
22765;DHT22;11549;50.852;3.816;2023-05-07T05:58:58;16.00;99.90
22765;DHT22;11549;50.852;3.816;2023-05-07T06:01:26;16.00;99.90
22765;DHT22;11549;50.852;3.816;2023-05-07T06:03:55;16.00;99.90
22765;DHT22;11549;50.852;3.816;2023-05-07T06:06:23;16.00;99.90
22765;DHT22;11549;50.852;3.816;2023-05-07T06:08:52;15.90;99.90
22765;DHT22;11549;50.852;3.816;2023-05-07T06:11:21;16.00;99.90
22765;DHT22;11549;50.852;3.816;2023-05-07T06:13:49;16.00;99.90
22765;DHT22;11549;50.852;3.816;2023-05-07T06:16:18;16.00;99.90
22765;DHT22;11549;50.852;3.816;2023-05-07T06:18:47;16.00;99.90
22765;DHT22;11549;50.852;3.816;2023-05-07T06:21:15;16.00;99.90
22765;DHT22;11549;50.852;3.816;2023-05-07T06:23:44;16.10;99.90
22765;DHT22;11549;50.852;3.816;2023-05-07T06:26:12;16.10;99.90
22765;DHT22;11549;50.852;3.816;2023-05-07T06:28:40;16.00;99.90
22765;DHT22;11549;50.852;3.816;2023-05-07T06:31:12;16.00;99.90
22765;DHT22;11549;50.852;3.816;2023-05-07T06:33:43;16.00;99.90
22765;DHT22;11549;50.852;3.816;2023-05-07T06:36:12;16.10;99.90
22765;DHT22;11549;50.852;3.816;2023-05-07T06:38:40;16.10;99.90
22765;DHT22;11549;50.852;3.816;2023-05-07T06:41:08;16.10;99.90
22765;DHT22;11549;50.852;3.816;2023-05-07T06:43:37;16.10;99.90
22765;DHT22;11549;50.852;3.816;2023-05-07T06:46:05;16.20;99.90
22765;DHT22;11549;50.852;3.816;2023-05-07T06:48:33;16.20;99.90
22765;DHT22;11549;50.852;3.816;2023-05-07T06:51:03;16.20;99.90
22765;DHT22;11549;50.852;3.816;2023-05-07T06:53:32;16.30;99.90
22765;DHT22;11549;50.852;3.816;2023-05-07T06:56:01;16.30;99.90
22765;DHT22;11549;50.852;3.816;2023-05-07T06:58:30;16.30;99.90
22765;DHT22;11549;50.852;3.816;2023-05-07T07:00:58;16.40;99.90
22765;DHT22;11549;50.852;3.816;2023-05-07T07:03:27;16.40;99.90
22765;DHT22;11549;50.852;3.816;2023-05-07T07:05:55;16.40;99.90
22765;DHT22;11549;50.852;3.816;2023-05-07T07:08:25;16.40;99.90
22765;DHT22;11549;50.852;3.816;2023-05-07T07:10:53;16.50;99.90
22765;DHT22;11549;50.852;3.816;2023-05-07T07:13:21;16.50;99.90
22765;DHT22;11549;50.852;3.816;2023-05-07T07:15:50;16.50;99.90
22765;DHT22;11549;50.852;3.816;2023-05-07T07:18:18;16.50;99.90
22765;DHT22;11549;50.852;3.816;2023-05-07T07:20:47;16.50;99.90
22765;DHT22;11549;50.852;3.816;2023-05-07T07:23:15;16.60;99.90
22765;DHT22;11549;50.852;3.816;2023-05-07T07:25:45;16.70;99.90
22765;DHT22;11549;50.852;3.816;2023-05-07T07:28:13;16.70;99.90
22765;DHT22;11549;50.852;3.816;2023-05-07T07:30:42;16.70;99.90
22765;DHT22;11549;50.852;3.816;2023-05-07T07:33:11;16.60;99.90
22765;DHT22;11549;50.852;3.816;2023-05-07T07:35:39;16.60;99.90
22765;DHT22;11549;50.852;3.816;2023-05-07T07:38:07;16.60;99.90
22765;DHT22;11549;50.852;3.816;2023-05-07T07:40:36;16.70;99.90
22765;DHT22;11549;50.852;3.816;2023-05-07T07:43:05;16.70;99.90
22765;DHT22;11549;50.852;3.816;2023-05-07T07:45:34;16.80;99.90
22765;DHT22;11549;50.852;3.816;2023-05-07T07:48:02;16.80;99.90
22765;DHT22;11549;50.852;3.816;2023-05-07T07:50:31;16.80;99.90
22765;DHT22;11549;50.852;3.816;2023-05-07T07:53:11;16.80;99.90
22765;DHT22;11549;50.852;3.816;2023-05-07T07:55:40;16.80;99.90
22765;DHT22;11549;50.852;3.816;2023-05-07T07:58:09;16.80;99.90
22765;DHT22;11549;50.852;3.816;2023-05-07T08:00:37;16.80;99.90
22765;DHT22;11549;50.852;3.816;2023-05-07T08:03:09;16.80;99.90
22765;DHT22;11549;50.852;3.816;2023-05-07T08:05:37;16.80;99.90
22765;DHT22;11549;50.852;3.816;2023-05-07T08:08:06;16.80;99.90
22765;DHT22;11549;50.852;3.816;2023-05-07T08:10:34;17.00;99.90
22765;DHT22;11549;50.852;3.816;2023-05-07T08:13:05;17.00;99.90
22765;DHT22;11549;50.852;3.816;2023-05-07T08:15:35;17.00;99.90
22765;DHT22;11549;50.852;3.816;2023-05-07T08:18:03;17.00;99.90
22765;DHT22;11549;50.852;3.816;2023-05-07T08:20:32;17.00;99.90
22765;DHT22;11549;50.852;3.816;2023-05-07T08:23:04;17.00;99.90
22765;DHT22;11549;50.852;3.816;2023-05-07T08:25:33;17.00;99.90
22765;DHT22;11549;50.852;3.816;2023-05-07T08:28:01;17.00;99.90
22765;DHT22;11549;50.852;3.816;2023-05-07T08:30:32;17.00;99.90
22765;DHT22;11549;50.852;3.816;2023-05-07T08:33:01;17.10;99.90
22765;DHT22;11549;50.852;3.816;2023-05-07T08:35:30;17.10;99.90
22765;DHT22;11549;50.852;3.816;2023-05-07T08:37:58;17.10;99.90
22765;DHT22;11549;50.852;3.816;2023-05-07T08:40:26;17.20;99.90
22765;DHT22;11549;50.852;3.816;2023-05-07T08:42:56;17.30;99.90
22765;DHT22;11549;50.852;3.816;2023-05-07T08:45:26;17.30;99.90
22765;DHT22;11549;50.852;3.816;2023-05-07T08:48:02;17.40;99.90
22765;DHT22;11549;50.852;3.816;2023-05-07T08:50:30;17.40;99.90
22765;DHT22;11549;50.852;3.816;2023-05-07T08:52:59;17.50;99.90
22765;DHT22;11549;50.852;3.816;2023-05-07T08:55:28;17.50;99.90
22765;DHT22;11549;50.852;3.816;2023-05-07T08:57:57;17.50;99.90
22765;DHT22;11549;50.852;3.816;2023-05-07T09:00:26;17.50;99.90
22765;DHT22;11549;50.852;3.816;2023-05-07T09:02:54;17.50;99.90
22765;DHT22;11549;50.852;3.816;2023-05-07T09:05:24;17.60;99.90
22765;DHT22;11549;50.852;3.816;2023-05-07T09:07:52;17.60;99.90
22765;DHT22;11549;50.852;3.816;2023-05-07T09:10:24;17.70;99.90
22765;DHT22;11549;50.852;3.816;2023-05-07T09:12:53;17.70;99.90
22765;DHT22;11549;50.852;3.816;2023-05-07T09:15:23;17.80;99.90
22765;DHT22;11549;50.852;3.816;2023-05-07T09:17:52;17.80;99.90
22765;DHT22;11549;50.852;3.816;2023-05-07T09:20:20;17.80;99.90
22765;DHT22;11549;50.852;3.816;2023-05-07T09:22:50;17.60;99.90
22765;DHT22;11549;50.852;3.816;2023-05-07T09:25:27;17.40;99.90
22765;DHT22;11549;50.852;3.816;2023-05-07T09:27:56;17.30;99.90
22765;DHT22;11549;50.852;3.816;2023-05-07T09:30:28;17.40;99.90
22765;DHT22;11549;50.852;3.816;2023-05-07T09:32:57;17.40;99.90
22765;DHT22;11549;50.852;3.816;2023-05-07T09:35:26;17.10;99.90
22765;DHT22;11549;50.852;3.816;2023-05-07T09:37:58;17.30;99.90
22765;DHT22;11549;50.852;3.816;2023-05-07T09:40:30;17.40;99.90
22765;DHT22;11549;50.852;3.816;2023-05-07T09:43:09;17.40;99.90
22765;DHT22;11549;50.852;3.816;2023-05-07T09:45:38;17.40;99.90
22765;DHT22;11549;50.852;3.816;2023-05-07T09:48:08;17.40;99.90
22765;DHT22;11549;50.852;3.816;2023-05-07T09:50:41;17.60;99.90
22765;DHT22;11549;50.852;3.816;2023-05-07T09:53:17;17.60;99.90
22765;DHT22;11549;50.852;3.816;2023-05-07T09:55:45;17.50;99.90
22765;DHT22;11549;50.852;3.816;2023-05-07T09:58:15;17.60;99.90
22765;DHT22;11549;50.852;3.816;2023-05-07T10:00:44;17.80;99.90
22765;DHT22;11549;50.852;3.816;2023-05-07T10:03:15;17.80;99.90
22765;DHT22;11549;50.852;3.816;2023-05-07T10:05:44;17.80;99.90
22765;DHT22;11549;50.852;3.816;2023-05-07T10:08:15;17.70;99.90
22765;DHT22;11549;50.852;3.816;2023-05-07T10:10:44;17.50;99.90
22765;DHT22;11549;50.852;3.816;2023-05-07T10:13:13;17.60;99.90
22765;DHT22;11549;50.852;3.816;2023-05-07T10:15:41;17.80;99.90
22765;DHT22;11549;50.852;3.816;2023-05-07T10:18:12;18.00;99.90
22765;DHT22;11549;50.852;3.816;2023-05-07T10:20:43;18.00;99.90
22765;DHT22;11549;50.852;3.816;2023-05-07T10:23:15;18.00;99.90
22765;DHT22;11549;50.852;3.816;2023-05-07T10:25:45;18.10;99.90
22765;DHT22;11549;50.852;3.816;2023-05-07T10:28:15;18.20;99.90
22765;DHT22;11549;50.852;3.816;2023-05-07T10:30:53;18.30;99.90
22765;DHT22;11549;50.852;3.816;2023-05-07T10:33:29;18.20;99.90
22765;DHT22;11549;50.852;3.816;2023-05-07T10:36:00;18.10;99.90
22765;DHT22;11549;50.852;3.816;2023-05-07T10:38:33;18.20;99.90
22765;DHT22;11549;50.852;3.816;2023-05-07T10:41:01;18.30;99.90
22765;DHT22;11549;50.852;3.816;2023-05-07T10:43:39;18.30;99.90
22765;DHT22;11549;50.852;3.816;2023-05-07T10:46:16;18.20;99.90
22765;DHT22;11549;50.852;3.816;2023-05-07T10:49:07;18.20;99.90
22765;DHT22;11549;50.852;3.816;2023-05-07T10:51:38;18.50;99.90
22765;DHT22;11549;50.852;3.816;2023-05-07T10:54:21;18.50;99.90
22765;DHT22;11549;50.852;3.816;2023-05-07T10:56:50;18.60;99.90
22765;DHT22;11549;50.852;3.816;2023-05-07T10:59:35;18.60;99.90
22765;DHT22;11549;50.852;3.816;2023-05-07T11:02:09;18.70;99.90
22765;DHT22;11549;50.852;3.816;2023-05-07T11:04:41;18.80;99.90
22765;DHT22;11549;50.852;3.816;2023-05-07T11:07:27;18.80;99.90
22765;DHT22;11549;50.852;3.816;2023-05-07T11:10:05;18.90;99.90
22765;DHT22;11549;50.852;3.816;2023-05-07T11:12:53;18.90;99.90
22765;DHT22;11549;50.852;3.816;2023-05-07T11:15:41;18.90;99.90
22765;DHT22;11549;50.852;3.816;2023-05-07T11:18:14;18.90;99.90
22765;DHT22;11549;50.852;3.816;2023-05-07T11:20:47;19.00;99.90
22765;DHT22;11549;50.852;3.816;2023-05-07T11:23:56;19.10;99.90
22765;DHT22;11549;50.852;3.816;2023-05-07T11:26:28;19.00;99.90
22765;DHT22;11549;50.852;3.816;2023-05-07T11:28:57;19.00;99.90
22765;DHT22;11549;50.852;3.816;2023-05-07T11:31:28;19.00;99.90
22765;DHT22;11549;50.852;3.816;2023-05-07T11:33:57;19.00;99.90
22765;DHT22;11549;50.852;3.816;2023-05-07T11:36:31;19.10;99.90
22765;DHT22;11549;50.852;3.816;2023-05-07T11:38:59;19.10;99.90
22765;DHT22;11549;50.852;3.816;2023-05-07T11:41:38;19.10;99.90
22765;DHT22;11549;50.852;3.816;2023-05-07T11:44:09;19.30;99.90
22765;DHT22;11549;50.852;3.816;2023-05-07T11:46:43;19.40;99.90
22765;DHT22;11549;50.852;3.816;2023-05-07T11:49:11;19.40;99.90
22765;DHT22;11549;50.852;3.816;2023-05-07T11:51:40;19.50;99.90
22765;DHT22;11549;50.852;3.816;2023-05-07T11:54:09;19.40;99.90
22765;DHT22;11549;50.852;3.816;2023-05-07T11:56:39;19.40;99.90
22765;DHT22;11549;50.852;3.816;2023-05-07T11:59:08;19.50;99.90
22765;DHT22;11549;50.852;3.816;2023-05-07T12:01:36;19.60;99.90
22765;DHT22;11549;50.852;3.816;2023-05-07T12:04:05;19.70;99.90
22765;DHT22;11549;50.852;3.816;2023-05-07T12:06:36;19.80;99.90
22765;DHT22;11549;50.852;3.816;2023-05-07T12:09:05;19.80;99.90
22765;DHT22;11549;50.852;3.816;2023-05-07T12:11:39;20.00;99.90
22765;DHT22;11549;50.852;3.816;2023-05-07T12:14:08;20.10;99.90
22765;DHT22;11549;50.852;3.816;2023-05-07T12:16:40;20.20;99.90
22765;DHT22;11549;50.852;3.816;2023-05-07T12:19:09;20.30;99.90
22765;DHT22;11549;50.852;3.816;2023-05-07T12:21:42;20.40;99.90
22765;DHT22;11549;50.852;3.816;2023-05-07T12:24:10;20.40;99.90
22765;DHT22;11549;50.852;3.816;2023-05-07T12:26:40;20.40;99.90
22765;DHT22;11549;50.852;3.816;2023-05-07T12:29:09;20.40;99.90
22765;DHT22;11549;50.852;3.816;2023-05-07T12:31:40;20.50;99.90
22765;DHT22;11549;50.852;3.816;2023-05-07T12:34:10;20.60;99.90
22765;DHT22;11549;50.852;3.816;2023-05-07T12:36:39;20.80;99.90
22765;DHT22;11549;50.852;3.816;2023-05-07T12:39:08;20.90;99.90
22765;DHT22;11549;50.852;3.816;2023-05-07T12:41:53;21.00;99.90
22765;DHT22;11549;50.852;3.816;2023-05-07T12:44:22;21.10;99.90
22765;DHT22;11549;50.852;3.816;2023-05-07T12:46:51;21.10;99.90
22765;DHT22;11549;50.852;3.816;2023-05-07T12:49:20;21.20;99.90
22765;DHT22;11549;50.852;3.816;2023-05-07T12:51:51;21.30;99.90
22765;DHT22;11549;50.852;3.816;2023-05-07T12:54:29;21.30;99.90
22765;DHT22;11549;50.852;3.816;2023-05-07T12:57:05;21.30;99.90
22765;DHT22;11549;50.852;3.816;2023-05-07T12:59:34;21.40;99.90
22765;DHT22;11549;50.852;3.816;2023-05-07T13:02:03;21.50;99.90
22765;DHT22;11549;50.852;3.816;2023-05-07T13:04:32;21.60;99.90
22765;DHT22;11549;50.852;3.816;2023-05-07T13:07:01;21.60;99.90
22765;DHT22;11549;50.852;3.816;2023-05-07T13:09:29;21.60;99.90
22765;DHT22;11549;50.852;3.816;2023-05-07T13:11:58;21.70;99.90
22765;DHT22;11549;50.852;3.816;2023-05-07T13:14:30;21.80;99.90
22765;DHT22;11549;50.852;3.816;2023-05-07T13:16:58;21.80;99.90
22765;DHT22;11549;50.852;3.816;2023-05-07T13:19:26;21.80;99.90
22765;DHT22;11549;50.852;3.816;2023-05-07T13:21:57;21.70;99.90
22765;DHT22;11549;50.852;3.816;2023-05-07T13:24:25;21.70;99.90
22765;DHT22;11549;50.852;3.816;2023-05-07T13:26:54;21.80;99.90
22765;DHT22;11549;50.852;3.816;2023-05-07T13:29:22;21.90;99.90
22765;DHT22;11549;50.852;3.816;2023-05-07T13:31:57;22.00;99.90
22765;DHT22;11549;50.852;3.816;2023-05-07T13:34:25;22.10;99.90
22765;DHT22;11549;50.852;3.816;2023-05-07T13:36:56;22.20;99.90
22765;DHT22;11549;50.852;3.816;2023-05-07T13:39:24;22.10;99.90
22765;DHT22;11549;50.852;3.816;2023-05-07T13:41:53;22.20;99.90
22765;DHT22;11549;50.852;3.816;2023-05-07T13:44:21;22.30;99.90
22765;DHT22;11549;50.852;3.816;2023-05-07T13:46:49;22.40;99.90
22765;DHT22;11549;50.852;3.816;2023-05-07T13:49:19;22.40;99.90
22765;DHT22;11549;50.852;3.816;2023-05-07T13:51:48;22.50;99.90
22765;DHT22;11549;50.852;3.816;2023-05-07T13:54:16;22.50;99.90
22765;DHT22;11549;50.852;3.816;2023-05-07T13:56:45;22.40;99.90
22765;DHT22;11549;50.852;3.816;2023-05-07T13:59:13;22.50;99.90
22765;DHT22;11549;50.852;3.816;2023-05-07T14:01:42;22.50;99.90
22765;DHT22;11549;50.852;3.816;2023-05-07T14:04:10;22.60;99.90
22765;DHT22;11549;50.852;3.816;2023-05-07T14:06:40;22.60;99.90
22765;DHT22;11549;50.852;3.816;2023-05-07T14:09:09;22.60;99.90
22765;DHT22;11549;50.852;3.816;2023-05-07T14:11:40;22.60;99.90
22765;DHT22;11549;50.852;3.816;2023-05-07T14:14:08;22.50;99.90
22765;DHT22;11549;50.852;3.816;2023-05-07T14:16:38;22.50;99.90
22765;DHT22;11549;50.852;3.816;2023-05-07T14:19:06;22.60;99.90
22765;DHT22;11549;50.852;3.816;2023-05-07T14:21:34;22.60;99.90
22765;DHT22;11549;50.852;3.816;2023-05-07T14:24:06;22.70;99.90
22765;DHT22;11549;50.852;3.816;2023-05-07T14:26:35;22.70;99.90
22765;DHT22;11549;50.852;3.816;2023-05-07T14:29:03;22.70;99.90
22765;DHT22;11549;50.852;3.816;2023-05-07T14:31:32;22.70;99.90
22765;DHT22;11549;50.852;3.816;2023-05-07T14:34:01;22.70;99.90
22765;DHT22;11549;50.852;3.816;2023-05-07T14:36:29;22.60;99.90
22765;DHT22;11549;50.852;3.816;2023-05-07T14:38:58;22.70;99.90
22765;DHT22;11549;50.852;3.816;2023-05-07T14:41:28;22.70;99.90
22765;DHT22;11549;50.852;3.816;2023-05-07T14:43:56;22.80;99.90
22765;DHT22;11549;50.852;3.816;2023-05-07T14:46:25;22.80;99.90
22765;DHT22;11549;50.852;3.816;2023-05-07T14:48:54;22.80;99.90
22765;DHT22;11549;50.852;3.816;2023-05-07T14:51:22;22.90;99.90
22765;DHT22;11549;50.852;3.816;2023-05-07T14:53:50;22.90;99.90
22765;DHT22;11549;50.852;3.816;2023-05-07T14:56:19;23.00;99.90
22765;DHT22;11549;50.852;3.816;2023-05-07T14:58:49;23.00;99.90
22765;DHT22;11549;50.852;3.816;2023-05-07T15:01:18;23.10;99.90
22765;DHT22;11549;50.852;3.816;2023-05-07T15:03:46;22.90;99.90
22765;DHT22;11549;50.852;3.816;2023-05-07T15:06:15;22.80;99.90
22765;DHT22;11549;50.852;3.816;2023-05-07T15:08:43;22.70;99.90
22765;DHT22;11549;50.852;3.816;2023-05-07T15:11:11;22.70;99.90
22765;DHT22;11549;50.852;3.816;2023-05-07T15:13:41;22.70;99.90
22765;DHT22;11549;50.852;3.816;2023-05-07T15:16:11;22.70;99.90
22765;DHT22;11549;50.852;3.816;2023-05-07T15:18:39;22.60;99.90
22765;DHT22;11549;50.852;3.816;2023-05-07T15:21:07;22.80;99.90
22765;DHT22;11549;50.852;3.816;2023-05-07T15:23:36;22.90;99.90
22765;DHT22;11549;50.852;3.816;2023-05-07T15:26:04;22.90;99.90
22765;DHT22;11549;50.852;3.816;2023-05-07T15:28:34;22.90;99.90
22765;DHT22;11549;50.852;3.816;2023-05-07T15:31:02;22.90;99.90
22765;DHT22;11549;50.852;3.816;2023-05-07T15:33:33;23.00;99.90
22765;DHT22;11549;50.852;3.816;2023-05-07T15:36:01;22.90;99.90
22765;DHT22;11549;50.852;3.816;2023-05-07T15:38:30;22.90;99.90
22765;DHT22;11549;50.852;3.816;2023-05-07T15:40:58;22.90;99.90
22765;DHT22;11549;50.852;3.816;2023-05-07T15:43:26;22.90;99.90
22765;DHT22;11549;50.852;3.816;2023-05-07T15:45:55;22.80;99.90